sensor_id;sensor_type;location;lat;lon;timestamp;temperature;humidity
55135;DHT22;41031;44.750;11.308;2023-07-13T00:01:50;27.70;92.60
55135;DHT22;41031;44.750;11.308;2023-07-13T00:04:20;27.70;92.60
55135;DHT22;41031;44.750;11.308;2023-07-13T00:06:47;27.60;92.70
55135;DHT22;41031;44.750;11.308;2023-07-13T00:09:15;27.50;93.10
55135;DHT22;41031;44.750;11.308;2023-07-13T00:11:44;27.40;93.70
55135;DHT22;41031;44.750;11.308;2023-07-13T00:14:11;27.30;94.10
55135;DHT22;41031;44.750;11.308;2023-07-13T00:16:39;27.20;94.50
55135;DHT22;41031;44.750;11.308;2023-07-13T00:19:11;27.10;94.60
55135;DHT22;41031;44.750;11.308;2023-07-13T00:21:41;27.00;94.80
55135;DHT22;41031;44.750;11.308;2023-07-13T00:24:12;26.90;94.90
55135;DHT22;41031;44.750;11.308;2023-07-13T00:26:42;26.90;94.90
55135;DHT22;41031;44.750;11.308;2023-07-13T00:29:13;26.90;94.90
55135;DHT22;41031;44.750;11.308;2023-07-13T00:31:40;26.80;94.80
55135;DHT22;41031;44.750;11.308;2023-07-13T00:34:07;26.80;94.60
55135;DHT22;41031;44.750;11.308;2023-07-13T00:36:34;26.80;94.50
55135;DHT22;41031;44.750;11.308;2023-07-13T00:39:02;26.70;94.30
55135;DHT22;41031;44.750;11.308;2023-07-13T00:41:31;26.70;93.70
55135;DHT22;41031;44.750;11.308;2023-07-13T00:43:58;26.60;93.10
55135;DHT22;41031;44.750;11.308;2023-07-13T00:46:29;26.50;92.80
55135;DHT22;41031;44.750;11.308;2023-07-13T00:49:01;26.50;92.40
55135;DHT22;41031;44.750;11.308;2023-07-13T00:51:37;26.40;90.60
55135;DHT22;41031;44.750;11.308;2023-07-13T00:54:09;26.40;88.40
55135;DHT22;41031;44.750;11.308;2023-07-13T00:56:39;26.40;86.10
55135;DHT22;41031;44.750;11.308;2023-07-13T00:59:08;26.30;85.10
55135;DHT22;41031;44.750;11.308;2023-07-13T01:01:38;26.20;84.70
55135;DHT22;41031;44.750;11.308;2023-07-13T01:04:06;26.30;84.50
55135;DHT22;41031;44.750;11.308;2023-07-13T01:06:38;26.20;84.60
55135;DHT22;41031;44.750;11.308;2023-07-13T01:09:07;26.30;84.50
55135;DHT22;41031;44.750;11.308;2023-07-13T01:11:37;26.20;83.90
55135;DHT22;41031;44.750;11.308;2023-07-13T01:14:04;26.30;83.20
55135;DHT22;41031;44.750;11.308;2023-07-13T01:16:36;26.30;82.30
55135;DHT22;41031;44.750;11.308;2023-07-13T01:19:32;26.30;82.50
55135;DHT22;41031;44.750;11.308;2023-07-13T01:22:12;26.30;82.00
55135;DHT22;41031;44.750;11.308;2023-07-13T01:24:42;26.20;81.30
55135;DHT22;41031;44.750;11.308;2023-07-13T01:27:12;26.20;81.50
55135;DHT22;41031;44.750;11.308;2023-07-13T01:29:44;26.20;81.90
55135;DHT22;41031;44.750;11.308;2023-07-13T01:32:16;26.20;82.40
55135;DHT22;41031;44.750;11.308;2023-07-13T01:34:53;26.20;82.90
55135;DHT22;41031;44.750;11.308;2023-07-13T01:37:24;26.30;83.10
55135;DHT22;41031;44.750;11.308;2023-07-13T01:39:52;26.20;82.80
55135;DHT22;41031;44.750;11.308;2023-07-13T01:42:20;26.20;82.50
55135;DHT22;41031;44.750;11.308;2023-07-13T01:44:49;26.30;82.80
55135;DHT22;41031;44.750;11.308;2023-07-13T01:47:16;26.20;82.90
55135;DHT22;41031;44.750;11.308;2023-07-13T01:49:44;26.20;83.00
55135;DHT22;41031;44.750;11.308;2023-07-13T01:52:14;26.20;82.90
55135;DHT22;41031;44.750;11.308;2023-07-13T01:54:41;26.20;82.90
55135;DHT22;41031;44.750;11.308;2023-07-13T01:57:08;26.20;82.60
55135;DHT22;41031;44.750;11.308;2023-07-13T01:59:35;26.20;82.40
55135;DHT22;41031;44.750;11.308;2023-07-13T02:02:05;26.10;82.30
55135;DHT22;41031;44.750;11.308;2023-07-13T02:04:33;26.10;82.40
55135;DHT22;41031;44.750;11.308;2023-07-13T02:07:00;26.10;82.50
55135;DHT22;41031;44.750;11.308;2023-07-13T02:09:28;26.10;82.60
55135;DHT22;41031;44.750;11.308;2023-07-13T02:11:55;26.10;82.60
55135;DHT22;41031;44.750;11.308;2023-07-13T02:14:24;26.10;82.40
55135;DHT22;41031;44.750;11.308;2023-07-13T02:16:51;26.10;82.30
55135;DHT22;41031;44.750;11.308;2023-07-13T02:19:18;26.10;82.20
55135;DHT22;41031;44.750;11.308;2023-07-13T02:21:46;26.10;82.00
55135;DHT22;41031;44.750;11.308;2023-07-13T02:24:16;26.10;81.80
55135;DHT22;41031;44.750;11.308;2023-07-13T02:26:46;26.10;81.90
55135;DHT22;41031;44.750;11.308;2023-07-13T02:29:13;26.10;82.20
55135;DHT22;41031;44.750;11.308;2023-07-13T02:31:40;26.10;82.40
55135;DHT22;41031;44.750;11.308;2023-07-13T02:34:08;26.10;82.50
55135;DHT22;41031;44.750;11.308;2023-07-13T02:36:36;26.10;82.70
55135;DHT22;41031;44.750;11.308;2023-07-13T02:39:05;26.10;82.70
55135;DHT22;41031;44.750;11.308;2023-07-13T02:41:36;26.10;82.60
55135;DHT22;41031;44.750;11.308;2023-07-13T02:44:03;26.10;83.20
55135;DHT22;41031;44.750;11.308;2023-07-13T02:46:32;26.10;82.50
55135;DHT22;41031;44.750;11.308;2023-07-13T02:48:59;26.10;82.50
55135;DHT22;41031;44.750;11.308;2023-07-13T02:51:26;26.10;82.50
55135;DHT22;41031;44.750;11.308;2023-07-13T02:53:54;26.10;82.40
55135;DHT22;41031;44.750;11.308;2023-07-13T02:56:23;26.00;82.40
55135;DHT22;41031;44.750;11.308;2023-07-13T02:58:53;26.00;82.50
55135;DHT22;41031;44.750;11.308;2023-07-13T03:01:21;26.00;82.40
55135;DHT22;41031;44.750;11.308;2023-07-13T03:03:51;26.00;82.30
55135;DHT22;41031;44.750;11.308;2023-07-13T03:06:21;26.00;82.20
55135;DHT22;41031;44.750;11.308;2023-07-13T03:08:53;26.00;82.10
55135;DHT22;41031;44.750;11.308;2023-07-13T03:11:22;26.00;82.10
55135;DHT22;41031;44.750;11.308;2023-07-13T03:13:55;26.00;82.10
55135;DHT22;41031;44.750;11.308;2023-07-13T03:16:23;26.00;82.20
55135;DHT22;41031;44.750;11.308;2023-07-13T03:18:52;26.00;82.10
55135;DHT22;41031;44.750;11.308;2023-07-13T03:21:19;26.00;82.20
55135;DHT22;41031;44.750;11.308;2023-07-13T03:23:46;26.00;82.20
55135;DHT22;41031;44.750;11.308;2023-07-13T03:26:17;26.00;82.40
55135;DHT22;41031;44.750;11.308;2023-07-13T03:28:45;26.00;82.70
55135;DHT22;41031;44.750;11.308;2023-07-13T03:31:20;26.00;82.70
55135;DHT22;41031;44.750;11.308;2023-07-13T03:33:48;26.00;83.00
55135;DHT22;41031;44.750;11.308;2023-07-13T03:36:21;26.00;83.20
55135;DHT22;41031;44.750;11.308;2023-07-13T03:38:54;25.90;83.40
55135;DHT22;41031;44.750;11.308;2023-07-13T03:41:25;25.90;83.40
55135;DHT22;41031;44.750;11.308;2023-07-13T03:43:54;25.90;83.40
55135;DHT22;41031;44.750;11.308;2023-07-13T03:46:23;25.90;83.40
55135;DHT22;41031;44.750;11.308;2023-07-13T03:48:51;25.90;83.40
55135;DHT22;41031;44.750;11.308;2023-07-13T03:51:21;25.80;83.50
55135;DHT22;41031;44.750;11.308;2023-07-13T03:53:48;25.80;83.70
55135;DHT22;41031;44.750;11.308;2023-07-13T03:56:18;25.80;83.90
55135;DHT22;41031;44.750;11.308;2023-07-13T03:58:48;25.80;83.80
55135;DHT22;41031;44.750;11.308;2023-07-13T04:01:21;25.70;83.60
55135;DHT22;41031;44.750;11.308;2023-07-13T04:03:49;25.70;83.40
55135;DHT22;41031;44.750;11.308;2023-07-13T04:06:20;25.60;83.30
55135;DHT22;41031;44.750;11.308;2023-07-13T04:08:51;25.60;83.60
55135;DHT22;41031;44.750;11.308;2023-07-13T04:11:19;25.50;83.50
55135;DHT22;41031;44.750;11.308;2023-07-13T04:13:47;25.50;83.60
55135;DHT22;41031;44.750;11.308;2023-07-13T04:16:15;25.50;83.50
55135;DHT22;41031;44.750;11.308;2023-07-13T04:18:46;25.50;83.50
55135;DHT22;41031;44.750;11.308;2023-07-13T04:21:14;25.50;83.60
55135;DHT22;41031;44.750;11.308;2023-07-13T04:23:41;25.40;83.90
55135;DHT22;41031;44.750;11.308;2023-07-13T04:26:08;25.50;84.30
55135;DHT22;41031;44.750;11.308;2023-07-13T04:28:36;25.40;84.40
55135;DHT22;41031;44.750;11.308;2023-07-13T04:31:04;25.40;84.60
55135;DHT22;41031;44.750;11.308;2023-07-13T04:33:31;25.40;84.70
55135;DHT22;41031;44.750;11.308;2023-07-13T04:35:58;25.40;84.70
55135;DHT22;41031;44.750;11.308;2023-07-13T04:38:28;25.40;84.70
55135;DHT22;41031;44.750;11.308;2023-07-13T04:40:57;25.40;84.80
55135;DHT22;41031;44.750;11.308;2023-07-13T04:43:25;25.40;84.70
55135;DHT22;41031;44.750;11.308;2023-07-13T04:45:53;25.40;84.70
55135;DHT22;41031;44.750;11.308;2023-07-13T04:48:21;25.40;84.80
55135;DHT22;41031;44.750;11.308;2023-07-13T04:50:55;25.40;84.90
55135;DHT22;41031;44.750;11.308;2023-07-13T04:53:22;25.40;85.30
55135;DHT22;41031;44.750;11.308;2023-07-13T04:55:49;25.40;85.10
55135;DHT22;41031;44.750;11.308;2023-07-13T04:58:16;25.50;84.90
55135;DHT22;41031;44.750;11.308;2023-07-13T05:00:44;25.50;84.90
55135;DHT22;41031;44.750;11.308;2023-07-13T05:03:11;25.50;84.80
55135;DHT22;41031;44.750;11.308;2023-07-13T05:05:38;25.50;84.60
55135;DHT22;41031;44.750;11.308;2023-07-13T05:08:05;25.60;84.50
55135;DHT22;41031;44.750;11.308;2023-07-13T05:10:35;25.60;84.50
55135;DHT22;41031;44.750;11.308;2023-07-13T05:13:02;25.60;84.60
55135;DHT22;41031;44.750;11.308;2023-07-13T05:15:33;25.50;84.70
55135;DHT22;41031;44.750;11.308;2023-07-13T05:18:00;25.60;84.90
55135;DHT22;41031;44.750;11.308;2023-07-13T05:20:27;25.60;84.50
55135;DHT22;41031;44.750;11.308;2023-07-13T05:22:55;25.70;84.40
55135;DHT22;41031;44.750;11.308;2023-07-13T05:25:22;25.80;84.50
55135;DHT22;41031;44.750;11.308;2023-07-13T05:27:49;25.80;84.50
55135;DHT22;41031;44.750;11.308;2023-07-13T05:30:16;25.80;84.20
55135;DHT22;41031;44.750;11.308;2023-07-13T05:32:43;26.00;84.20
55135;DHT22;41031;44.750;11.308;2023-07-13T05:35:10;26.00;83.90
55135;DHT22;41031;44.750;11.308;2023-07-13T05:37:37;26.00;83.40
55135;DHT22;41031;44.750;11.308;2023-07-13T05:40:05;26.10;83.50
55135;DHT22;41031;44.750;11.308;2023-07-13T05:42:32;26.10;83.50
55135;DHT22;41031;44.750;11.308;2023-07-13T05:44:59;26.10;83.20
55135;DHT22;41031;44.750;11.308;2023-07-13T05:47:26;26.10;83.30
55135;DHT22;41031;44.750;11.308;2023-07-13T05:49:53;26.20;83.20
55135;DHT22;41031;44.750;11.308;2023-07-13T05:52:20;26.20;83.20
55135;DHT22;41031;44.750;11.308;2023-07-13T05:54:47;26.20;83.00
55135;DHT22;41031;44.750;11.308;2023-07-13T05:57:14;26.20;82.80
55135;DHT22;41031;44.750;11.308;2023-07-13T05:59:42;26.30;82.90
55135;DHT22;41031;44.750;11.308;2023-07-13T06:02:10;26.40;82.90
55135;DHT22;41031;44.750;11.308;2023-07-13T06:04:37;26.40;82.70
55135;DHT22;41031;44.750;11.308;2023-07-13T06:07:04;26.50;82.20
55135;DHT22;41031;44.750;11.308;2023-07-13T06:09:32;26.50;82.20
55135;DHT22;41031;44.750;11.308;2023-07-13T06:11:59;26.60;81.80
55135;DHT22;41031;44.750;11.308;2023-07-13T06:14:26;26.70;81.60
55135;DHT22;41031;44.750;11.308;2023-07-13T06:16:53;26.70;81.50
55135;DHT22;41031;44.750;11.308;2023-07-13T06:19:20;26.80;81.20
55135;DHT22;41031;44.750;11.308;2023-07-13T06:21:47;26.90;80.80
55135;DHT22;41031;44.750;11.308;2023-07-13T06:24:14;27.00;80.70
55135;DHT22;41031;44.750;11.308;2023-07-13T06:26:41;27.10;80.40
55135;DHT22;41031;44.750;11.308;2023-07-13T06:29:08;27.20;80.10
55135;DHT22;41031;44.750;11.308;2023-07-13T06:31:35;27.30;79.80
55135;DHT22;41031;44.750;11.308;2023-07-13T06:34:03;27.30;79.70
55135;DHT22;41031;44.750;11.308;2023-07-13T06:36:30;27.40;79.60
55135;DHT22;41031;44.750;11.308;2023-07-13T06:38:57;27.50;79.40
55135;DHT22;41031;44.750;11.308;2023-07-13T06:41:24;27.60;78.80
55135;DHT22;41031;44.750;11.308;2023-07-13T06:43:54;27.50;78.90
55135;DHT22;41031;44.750;11.308;2023-07-13T06:46:23;27.60;79.00
55135;DHT22;41031;44.750;11.308;2023-07-13T06:48:50;27.60;79.20
55135;DHT22;41031;44.750;11.308;2023-07-13T06:51:17;27.70;79.40
55135;DHT22;41031;44.750;11.308;2023-07-13T06:53:44;27.80;79.10
55135;DHT22;41031;44.750;11.308;2023-07-13T06:56:11;27.80;79.10
55135;DHT22;41031;44.750;11.308;2023-07-13T06:58:38;27.90;79.10
55135;DHT22;41031;44.750;11.308;2023-07-13T07:01:05;27.90;78.80
55135;DHT22;41031;44.750;11.308;2023-07-13T07:03:34;27.90;78.20
55135;DHT22;41031;44.750;11.308;2023-07-13T07:06:15;27.90;78.30
55135;DHT22;41031;44.750;11.308;2023-07-13T07:08:43;28.00;78.10
55135;DHT22;41031;44.750;11.308;2023-07-13T07:11:16;28.00;78.00
55135;DHT22;41031;44.750;11.308;2023-07-13T07:13:43;28.00;78.70
55135;DHT22;41031;44.750;11.308;2023-07-13T07:16:10;28.00;78.30
55135;DHT22;41031;44.750;11.308;2023-07-13T07:18:39;28.10;78.40
55135;DHT22;41031;44.750;11.308;2023-07-13T07:21:07;28.10;78.60
55135;DHT22;41031;44.750;11.308;2023-07-13T07:23:34;28.10;78.70
55135;DHT22;41031;44.750;11.308;2023-07-13T07:26:01;28.20;78.70
55135;DHT22;41031;44.750;11.308;2023-07-13T07:28:29;28.20;78.80
55135;DHT22;41031;44.750;11.308;2023-07-13T07:31:10;28.20;79.40
55135;DHT22;41031;44.750;11.308;2023-07-13T07:33:40;28.10;79.70
55135;DHT22;41031;44.750;11.308;2023-07-13T07:36:07;28.10;80.20
55135;DHT22;41031;44.750;11.308;2023-07-13T07:38:37;28.10;80.30
55135;DHT22;41031;44.750;11.308;2023-07-13T07:41:05;28.00;80.40
55135;DHT22;41031;44.750;11.308;2023-07-13T07:43:35;28.00;80.20
55135;DHT22;41031;44.750;11.308;2023-07-13T07:46:03;27.90;80.50
55135;DHT22;41031;44.750;11.308;2023-07-13T07:48:31;27.90;81.00
55135;DHT22;41031;44.750;11.308;2023-07-13T07:50:58;27.90;80.80
55135;DHT22;41031;44.750;11.308;2023-07-13T07:53:25;27.80;80.70
55135;DHT22;41031;44.750;11.308;2023-07-13T07:55:52;27.70;80.90
55135;DHT22;41031;44.750;11.308;2023-07-13T07:58:22;27.70;80.80
55135;DHT22;41031;44.750;11.308;2023-07-13T08:01:01;27.60;81.00
55135;DHT22;41031;44.750;11.308;2023-07-13T08:03:31;27.50;81.10
55135;DHT22;41031;44.750;11.308;2023-07-13T08:06:18;27.50;81.60
55135;DHT22;41031;44.750;11.308;2023-07-13T08:08:50;27.40;81.80
55135;DHT22;41031;44.750;11.308;2023-07-13T08:11:17;27.40;82.00
55135;DHT22;41031;44.750;11.308;2023-07-13T08:13:47;27.30;82.10
55135;DHT22;41031;44.750;11.308;2023-07-13T08:16:17;27.30;82.60
55135;DHT22;41031;44.750;11.308;2023-07-13T08:18:44;27.20;82.90
55135;DHT22;41031;44.750;11.308;2023-07-13T08:21:11;27.20;83.30
55135;DHT22;41031;44.750;11.308;2023-07-13T08:23:39;27.10;83.50
55135;DHT22;41031;44.750;11.308;2023-07-13T08:26:07;27.00;83.80
55135;DHT22;41031;44.750;11.308;2023-07-13T08:28:34;26.90;84.20
55135;DHT22;41031;44.750;11.308;2023-07-13T08:31:04;26.80;84.50
55135;DHT22;41031;44.750;11.308;2023-07-13T08:33:31;26.80;85.10
55135;DHT22;41031;44.750;11.308;2023-07-13T08:35:58;26.70;85.30
55135;DHT22;41031;44.750;11.308;2023-07-13T08:38:25;26.70;85.60
55135;DHT22;41031;44.750;11.308;2023-07-13T08:40:54;26.60;85.70
55135;DHT22;41031;44.750;11.308;2023-07-13T08:43:30;26.60;85.80
55135;DHT22;41031;44.750;11.308;2023-07-13T08:46:05;26.50;86.10
55135;DHT22;41031;44.750;11.308;2023-07-13T08:48:39;26.40;86.30
55135;DHT22;41031;44.750;11.308;2023-07-13T08:51:16;26.40;86.50
55135;DHT22;41031;44.750;11.308;2023-07-13T08:53:48;26.40;86.50
55135;DHT22;41031;44.750;11.308;2023-07-13T08:56:21;26.40;86.60
55135;DHT22;41031;44.750;11.308;2023-07-13T08:58:53;26.40;86.30
55135;DHT22;41031;44.750;11.308;2023-07-13T09:01:45;26.30;86.10
55135;DHT22;41031;44.750;11.308;2023-07-13T09:04:19;26.30;86.30
55135;DHT22;41031;44.750;11.308;2023-07-13T09:09:40;26.20;86.20
55135;DHT22;41031;44.750;11.308;2023-07-13T09:12:29;26.10;86.10
55135;DHT22;41031;44.750;11.308;2023-07-13T09:14:58;26.10;86.10
55135;DHT22;41031;44.750;11.308;2023-07-13T09:17:33;26.00;86.20
55135;DHT22;41031;44.750;11.308;2023-07-13T09:20:21;26.00;86.60
55135;DHT22;41031;44.750;11.308;2023-07-13T09:22:50;26.00;86.60
55135;DHT22;41031;44.750;11.308;2023-07-13T09:25:30;26.00;86.60
55135;DHT22;41031;44.750;11.308;2023-07-13T09:28:13;25.90;86.90
55135;DHT22;41031;44.750;11.308;2023-07-13T09:33:27;25.80;87.40
55135;DHT22;41031;44.750;11.308;2023-07-13T09:35:59;25.80;87.60
55135;DHT22;41031;44.750;11.308;2023-07-13T09:38:28;25.70;87.70
55135;DHT22;41031;44.750;11.308;2023-07-13T09:41:19;25.70;88.00
55135;DHT22;41031;44.750;11.308;2023-07-13T09:46:44;25.70;89.80
55135;DHT22;41031;44.750;11.308;2023-07-13T09:49:12;25.70;89.60
55135;DHT22;41031;44.750;11.308;2023-07-13T09:51:43;25.70;89.80
55135;DHT22;41031;44.750;11.308;2023-07-13T09:54:20;25.60;90.10
55135;DHT22;41031;44.750;11.308;2023-07-13T09:56:47;25.40;90.30
55135;DHT22;41031;44.750;11.308;2023-07-13T09:59:21;25.40;90.30
55135;DHT22;41031;44.750;11.308;2023-07-13T10:01:50;25.40;90.30
55135;DHT22;41031;44.750;11.308;2023-07-13T10:04:19;25.30;90.20
55135;DHT22;41031;44.750;11.308;2023-07-13T10:06:47;25.30;90.10
55135;DHT22;41031;44.750;11.308;2023-07-13T10:09:18;25.20;90.20
55135;DHT22;41031;44.750;11.308;2023-07-13T10:11:46;25.20;90.20
55135;DHT22;41031;44.750;11.308;2023-07-13T10:14:21;25.20;90.20
55135;DHT22;41031;44.750;11.308;2023-07-13T10:16:58;25.30;90.10
55135;DHT22;41031;44.750;11.308;2023-07-13T10:19:35;25.30;90.10
55135;DHT22;41031;44.750;11.308;2023-07-13T10:22:29;25.30;90.20
55135;DHT22;41031;44.750;11.308;2023-07-13T10:24:59;25.40;90.30
55135;DHT22;41031;44.750;11.308;2023-07-13T10:27:35;25.60;90.30
55135;DHT22;41031;44.750;11.308;2023-07-13T10:32:32;26.30;88.40
55135;DHT22;41031;44.750;11.308;2023-07-13T10:34:59;26.60;87.30
55135;DHT22;41031;44.750;11.308;2023-07-13T10:37:53;26.80;86.50
55135;DHT22;41031;44.750;11.308;2023-07-13T10:40:23;26.90;86.00
55135;DHT22;41031;44.750;11.308;2023-07-13T10:42:54;27.10;85.20
55135;DHT22;41031;44.750;11.308;2023-07-13T10:45:24;27.30;84.20
55135;DHT22;41031;44.750;11.308;2023-07-13T10:47:54;27.30;84.30
55135;DHT22;41031;44.750;11.308;2023-07-13T10:50:25;27.30;84.00
55135;DHT22;41031;44.750;11.308;2023-07-13T10:53:01;27.30;84.20
55135;DHT22;41031;44.750;11.308;2023-07-13T10:55:36;27.40;84.80
55135;DHT22;41031;44.750;11.308;2023-07-13T10:58:14;27.50;85.10
55135;DHT22;41031;44.750;11.308;2023-07-13T11:01:39;27.60;85.10
55135;DHT22;41031;44.750;11.308;2023-07-13T11:04:03;27.90;84.90
55135;DHT22;41031;44.750;11.308;2023-07-13T11:06:42;28.10;84.50
55135;DHT22;41031;44.750;11.308;2023-07-13T11:11:49;28.50;83.30
55135;DHT22;41031;44.750;11.308;2023-07-13T11:14:35;28.70;82.80
55135;DHT22;41031;44.750;11.308;2023-07-13T11:22:52;29.70;81.70
55135;DHT22;41031;44.750;11.308;2023-07-13T11:33:24;30.90;76.90
55135;DHT22;41031;44.750;11.308;2023-07-13T11:38:35;31.50;74.40
55135;DHT22;41031;44.750;11.308;2023-07-13T11:41:30;31.70;73.70
55135;DHT22;41031;44.750;11.308;2023-07-13T11:44:14;32.00;73.20
55135;DHT22;41031;44.750;11.308;2023-07-13T11:46:51;32.20;71.60
55135;DHT22;41031;44.750;11.308;2023-07-13T11:49:23;32.40;71.00
55135;DHT22;41031;44.750;11.308;2023-07-13T11:51:52;32.60;70.70
55135;DHT22;41031;44.750;11.308;2023-07-13T11:54:33;32.80;69.90
55135;DHT22;41031;44.750;11.308;2023-07-13T11:57:24;32.80;69.00
55135;DHT22;41031;44.750;11.308;2023-07-13T11:59:51;32.90;68.70
55135;DHT22;41031;44.750;11.308;2023-07-13T12:02:32;32.90;68.50
55135;DHT22;41031;44.750;11.308;2023-07-13T12:05:01;33.00;68.50
55135;DHT22;41031;44.750;11.308;2023-07-13T12:07:32;33.20;68.10
55135;DHT22;41031;44.750;11.308;2023-07-13T12:12:55;33.40;67.70
55135;DHT22;41031;44.750;11.308;2023-07-13T12:15:28;33.40;67.90
55135;DHT22;41031;44.750;11.308;2023-07-13T12:17:58;33.60;68.00
55135;DHT22;41031;44.750;11.308;2023-07-13T12:20:35;33.70;67.50
55135;DHT22;41031;44.750;11.308;2023-07-13T12:23:05;33.80;66.00
55135;DHT22;41031;44.750;11.308;2023-07-13T12:25:36;33.80;66.50
55135;DHT22;41031;44.750;11.308;2023-07-13T12:28:20;33.80;66.80
55135;DHT22;41031;44.750;11.308;2023-07-13T12:30:48;33.70;65.90
55135;DHT22;41031;44.750;11.308;2023-07-13T12:33:16;33.80;65.40
55135;DHT22;41031;44.750;11.308;2023-07-13T12:35:48;33.80;65.20
55135;DHT22;41031;44.750;11.308;2023-07-13T12:38:17;33.60;65.20
55135;DHT22;41031;44.750;11.308;2023-07-13T12:40:44;33.30;64.60
55135;DHT22;41031;44.750;11.308;2023-07-13T12:43:14;33.10;66.00
55135;DHT22;41031;44.750;11.308;2023-07-13T12:46:04;32.90;65.80
55135;DHT22;41031;44.750;11.308;2023-07-13T12:48:39;32.80;66.00
55135;DHT22;41031;44.750;11.308;2023-07-13T12:51:22;32.80;68.10
55135;DHT22;41031;44.750;11.308;2023-07-13T12:53:56;32.90;67.70
55135;DHT22;41031;44.750;11.308;2023-07-13T12:56:26;33.00;68.40
55135;DHT22;41031;44.750;11.308;2023-07-13T12:58:58;33.20;68.00
55135;DHT22;41031;44.750;11.308;2023-07-13T13:01:32;33.30;66.70
55135;DHT22;41031;44.750;11.308;2023-07-13T13:04:02;33.40;66.10
55135;DHT22;41031;44.750;11.308;2023-07-13T13:06:33;33.40;66.80
55135;DHT22;41031;44.750;11.308;2023-07-13T13:09:03;33.40;66.80
55135;DHT22;41031;44.750;11.308;2023-07-13T13:11:36;33.50;66.80
55135;DHT22;41031;44.750;11.308;2023-07-13T13:14:03;33.60;67.00
55135;DHT22;41031;44.750;11.308;2023-07-13T13:16:33;33.60;66.30
55135;DHT22;41031;44.750;11.308;2023-07-13T13:19:24;33.70;65.60
55135;DHT22;41031;44.750;11.308;2023-07-13T13:21:54;33.80;65.00
55135;DHT22;41031;44.750;11.308;2023-07-13T13:24:26;33.80;63.60
55135;DHT22;41031;44.750;11.308;2023-07-13T13:26:54;33.60;63.80
55135;DHT22;41031;44.750;11.308;2023-07-13T13:29:24;33.40;64.60
55135;DHT22;41031;44.750;11.308;2023-07-13T13:31:53;33.30;64.60
55135;DHT22;41031;44.750;11.308;2023-07-13T13:34:22;33.10;65.40
55135;DHT22;41031;44.750;11.308;2023-07-13T13:36:53;33.00;65.80
55135;DHT22;41031;44.750;11.308;2023-07-13T13:39:37;33.10;66.60
55135;DHT22;41031;44.750;11.308;2023-07-13T13:42:05;33.10;66.40
55135;DHT22;41031;44.750;11.308;2023-07-13T13:44:32;33.20;65.60
55135;DHT22;41031;44.750;11.308;2023-07-13T13:46:59;33.20;65.30
55135;DHT22;41031;44.750;11.308;2023-07-13T13:49:27;33.40;65.60
55135;DHT22;41031;44.750;11.308;2023-07-13T13:51:55;33.40;65.30
55135;DHT22;41031;44.750;11.308;2023-07-13T13:54:24;33.50;65.10
55135;DHT22;41031;44.750;11.308;2023-07-13T13:56:53;33.50;65.20
55135;DHT22;41031;44.750;11.308;2023-07-13T13:59:20;33.50;64.40
55135;DHT22;41031;44.750;11.308;2023-07-13T14:01:49;33.50;64.80
55135;DHT22;41031;44.750;11.308;2023-07-13T14:04:20;33.50;64.70
55135;DHT22;41031;44.750;11.308;2023-07-13T14:06:48;33.60;64.50
55135;DHT22;41031;44.750;11.308;2023-07-13T14:09:18;33.60;63.70
55135;DHT22;41031;44.750;11.308;2023-07-13T14:11:48;33.60;64.90
55135;DHT22;41031;44.750;11.308;2023-07-13T14:14:20;33.50;64.70
55135;DHT22;41031;44.750;11.308;2023-07-13T14:16:50;33.50;62.60
55135;DHT22;41031;44.750;11.308;2023-07-13T14:19:22;33.40;61.80
55135;DHT22;41031;44.750;11.308;2023-07-13T14:21:49;33.30;62.80
55135;DHT22;41031;44.750;11.308;2023-07-13T14:24:16;33.30;63.00
55135;DHT22;41031;44.750;11.308;2023-07-13T14:26:47;33.20;63.00
55135;DHT22;41031;44.750;11.308;2023-07-13T14:29:18;33.30;62.70
55135;DHT22;41031;44.750;11.308;2023-07-13T14:31:50;33.30;62.50
55135;DHT22;41031;44.750;11.308;2023-07-13T14:34:17;33.40;62.60
55135;DHT22;41031;44.750;11.308;2023-07-13T14:36:47;33.50;62.20
55135;DHT22;41031;44.750;11.308;2023-07-13T14:39:18;33.50;61.80
55135;DHT22;41031;44.750;11.308;2023-07-13T14:41:45;33.50;61.60
55135;DHT22;41031;44.750;11.308;2023-07-13T14:44:14;33.40;61.90
55135;DHT22;41031;44.750;11.308;2023-07-13T14:46:43;33.50;62.20
55135;DHT22;41031;44.750;11.308;2023-07-13T14:51:50;33.60;62.10
55135;DHT22;41031;44.750;11.308;2023-07-13T14:54:17;33.60;62.10
55135;DHT22;41031;44.750;11.308;2023-07-13T14:56:44;33.70;61.90
55135;DHT22;41031;44.750;11.308;2023-07-13T14:59:14;33.60;62.00
55135;DHT22;41031;44.750;11.308;2023-07-13T15:01:41;33.60;60.90
55135;DHT22;41031;44.750;11.308;2023-07-13T15:04:08;33.50;61.00
55135;DHT22;41031;44.750;11.308;2023-07-13T15:07:00;33.40;61.40
55135;DHT22;41031;44.750;11.308;2023-07-13T15:09:29;33.40;62.40
55135;DHT22;41031;44.750;11.308;2023-07-13T15:11:58;33.30;62.20
55135;DHT22;41031;44.750;11.308;2023-07-13T15:14:26;33.20;62.20
55135;DHT22;41031;44.750;11.308;2023-07-13T15:16:58;33.20;62.40
55135;DHT22;41031;44.750;11.308;2023-07-13T15:19:27;33.20;62.30
55135;DHT22;41031;44.750;11.308;2023-07-13T15:21:55;33.20;62.50
55135;DHT22;41031;44.750;11.308;2023-07-13T15:24:28;33.20;62.90
55135;DHT22;41031;44.750;11.308;2023-07-13T15:26:56;33.20;63.10
55135;DHT22;41031;44.750;11.308;2023-07-13T15:29:23;33.20;63.00
55135;DHT22;41031;44.750;11.308;2023-07-13T15:31:50;33.10;62.90
55135;DHT22;41031;44.750;11.308;2023-07-13T15:34:23;33.00;62.80
55135;DHT22;41031;44.750;11.308;2023-07-13T15:36:51;32.90;62.80
55135;DHT22;41031;44.750;11.308;2023-07-13T15:39:18;32.80;63.50
55135;DHT22;41031;44.750;11.308;2023-07-13T15:41:46;32.70;63.50
55135;DHT22;41031;44.750;11.308;2023-07-13T15:44:27;32.70;63.40
55135;DHT22;41031;44.750;11.308;2023-07-13T15:46:55;32.70;63.40
55135;DHT22;41031;44.750;11.308;2023-07-13T15:49:23;32.60;62.80
55135;DHT22;41031;44.750;11.308;2023-07-13T15:51:50;32.50;63.30
55135;DHT22;41031;44.750;11.308;2023-07-13T15:54:18;32.50;64.00
55135;DHT22;41031;44.750;11.308;2023-07-13T15:56:52;32.40;65.60
55135;DHT22;41031;44.750;11.308;2023-07-13T15:59:20;32.40;65.10
55135;DHT22;41031;44.750;11.308;2023-07-13T16:01:47;32.40;65.10
55135;DHT22;41031;44.750;11.308;2023-07-13T16:04:16;32.30;65.10
55135;DHT22;41031;44.750;11.308;2023-07-13T16:06:47;32.30;65.00
55135;DHT22;41031;44.750;11.308;2023-07-13T16:09:20;32.30;65.20
55135;DHT22;41031;44.750;11.308;2023-07-13T16:11:49;32.20;64.90